Time;durP1;ratioP1;P1;durP2;ratioP2;P2;SDS_P1;SDS_P2;PMS_P1;PMS_P2;Temp;Humidity;BMP_temperature;BMP_pressure;BME280_temperature;BME280_humidity;BME280_pressure;Samples;Min_cycle;Max_cycle;Signal;HPM_P1;HPM_P2
2021/06/21 00:02:23;;;;;;;3.08;1.40;;;;;;;19.93;68.92;99884.56;1717319;82;21194;-70
2021/06/21 00:04:51;;;;;;;8.73;1.70;;;;;;;19.89;68.95;99884.78;1717577;83;21713;-70
2021/06/21 00:07:19;;;;;;;2.52;1.40;;;;;;;19.88;69.07;99883.09;1717524;83;21551;-71
2021/06/21 00:09:49;;;;;;;4.55;1.50;;;;;;;19.86;69.30;99893.05;1717944;83;21048;-70
2021/06/21 00:12:16;;;;;;;8.85;1.50;;;;;;;19.84;69.24;99881.63;1718105;83;21872;-70
2021/06/21 00:14:45;;;;;;;5.37;1.40;;;;;;;19.87;69.14;99885.39;1717449;83;21079;-71
2021/06/21 00:17:16;;;;;;;6.62;1.50;;;;;;;19.86;69.22;99881.03;1678962;83;21047;-69
2021/06/21 00:19:47;;;;;;;4.75;1.60;;;;;;;19.84;69.38;99878.12;1668292;85;21047;-70
2021/06/21 00:22:15;;;;;;;6.50;1.30;;;;;;;19.80;69.53;99877.50;1667830;85;21056;-72
2021/06/21 00:24:43;;;;;;;3.37;1.40;;;;;;;19.76;69.61;99873.39;1667930;86;21199;-70
2021/06/21 00:27:10;;;;;;;4.87;1.50;;;;;;;19.71;69.88;99872.88;1669793;85;21676;-72
2021/06/21 00:29:39;;;;;;;2.92;1.55;;;;;;;19.67;69.98;99883.44;1685147;85;21102;-72
2021/06/21 00:32:07;;;;;;;6.42;1.70;;;;;;;19.61;70.13;99883.42;1716735;83;21512;-70
2021/06/21 00:34:34;;;;;;;4.50;1.52;;;;;;;19.57;70.29;99886.45;1720385;82;21065;-71
2021/06/21 00:37:01;;;;;;;5.53;2.02;;;;;;;19.53;70.41;99894.34;1685094;85;21110;-71
2021/06/21 00:39:28;;;;;;;5.15;1.70;;;;;;;19.48;70.57;99896.03;1685307;85;21499;-70
2021/06/21 00:41:55;;;;;;;4.10;1.57;;;;;;;19.44;70.78;99897.23;1685198;85;20990;-71
2021/06/21 00:44:22;;;;;;;4.60;1.80;;;;;;;19.40;71.04;99893.97;1685351;85;21057;-71
2021/06/21 00:46:50;;;;;;;6.30;1.52;;;;;;;19.36;71.20;99895.16;1685149;85;21056;-69
2021/06/21 00:49:17;;;;;;;8.13;1.75;;;;;;;19.33;71.33;99906.09;1719148;82;22002;-73
2021/06/21 00:51:44;;;;;;;2.77;1.62;;;;;;;19.27;71.60;99901.22;1711812;83;21044;-75
2021/06/21 00:54:11;;;;;;;2.33;1.75;;;;;;;19.23;71.76;99897.08;1712010;83;21132;-73
2021/06/21 00:56:39;;;;;;;2.62;1.70;;;;;;;19.21;72.02;99897.67;1712032;83;21075;-75
2021/06/21 00:59:05;;;;;;;3.33;1.90;;;;;;;19.17;72.10;99894.89;1712250;83;21762;-75
2021/06/21 01:01:33;;;;;;;5.12;1.75;;;;;;;19.12;72.20;99892.58;1712138;83;21165;-71
2021/06/21 01:04:00;;;;;;;3.22;1.40;;;;;;;19.08;72.47;99886.61;1712114;82;21049;-80
2021/06/21 01:06:28;;;;;;;3.98;1.70;;;;;;;19.04;72.73;99882.95;1712033;83;21048;-81
2021/06/21 01:08:55;;;;;;;8.95;1.72;;;;;;;19.00;72.87;99878.81;1712127;83;21104;-81
2021/06/21 01:11:27;;;;;;;6.62;1.80;;;;;;;18.97;72.95;99873.23;1711961;83;21586;-84
2021/06/21 01:14:05;;;;;;;4.08;1.50;;;;;;;18.95;73.11;99873.83;1711804;83;21156;-84
2021/06/21 01:17:11;;;;;;;4.15;1.87;;;;;;;18.95;73.01;99870.31;1712112;83;21010;-81
2021/06/21 01:20:15;;;;;;;4.25;1.75;;;;;;;18.94;73.10;99875.30;1712329;83;21502;-83
2021/06/21 01:23:11;;;;;;;3.90;1.47;;;;;;;18.91;73.15;99879.05;1711209;83;21111;-83
2021/06/21 01:25:50;;;;;;;2.72;1.60;;;;;;;18.88;73.22;99876.59;1712401;83;21089;-80
2021/06/21 01:29:00;;;;;;;3.27;1.60;;;;;;;18.88;73.30;99876.59;1707736;83;21612;-75
2021/06/21 01:31:57;;;;;;;5.92;1.50;;;;;;;18.85;73.29;99872.84;1717749;83;21054;-78
2021/06/21 01:34:27;;;;;;;5.55;1.52;;;;;;;18.84;73.24;99860.45;1724177;82;21123;-78
2021/06/21 01:36:54;;;;;;;4.10;1.42;;;;;;;18.82;73.32;99867.74;1717726;83;21603;-80
2021/06/21 01:39:21;;;;;;;3.98;1.77;;;;;;;18.81;73.35;99862.02;1718161;83;21120;-77
2021/06/21 01:41:49;;;;;;;3.72;1.50;;;;;;;18.78;73.41;99859.59;1701572;83;21198;-77
2021/06/21 01:44:18;;;;;;;3.50;1.57;;;;;;;18.77;73.37;99865.88;1678483;84;21162;-79
2021/06/21 01:46:46;;;;;;;5.20;1.65;;;;;;;18.75;73.48;99867.78;1717699;82;21053;-80
2021/06/21 01:49:17;;;;;;;3.27;1.50;;;;;;;18.75;73.46;99873.11;1701528;83;21016;-81
2021/06/21 01:51:45;;;;;;;8.93;1.62;;;;;;;18.74;73.35;99870.09;1717691;83;21089;-79
2021/06/21 01:54:12;;;;;;;5.60;1.30;;;;;;;18.74;73.47;99869.60;1718473;83;21512;-79
2021/06/21 01:56:45;;;;;;;6.10;1.55;;;;;;;18.73;73.41;99866.58;1718447;83;21117;-80
2021/06/21 01:59:12;;;;;;;6.85;1.60;;;;;;;18.73;73.40;99865.25;1718044;83;21061;-79
2021/06/21 02:01:39;;;;;;;11.90;1.85;;;;;;;18.73;73.41;99867.07;1717754;83;21116;-76
2021/06/21 02:04:08;;;;;;;10.25;1.77;;;;;;;18.74;73.36;99863.42;1717992;83;21049;-78
2021/06/21 02:06:35;;;;;;;7.20;2.05;;;;;;;18.75;73.38;99857.11;1717567;83;21080;-77
2021/06/21 02:09:05;;;;;;;4.37;1.70;;;;;;;18.76;73.26;99858.83;1718020;83;21060;-77
2021/06/21 02:11:33;;;;;;;6.28;1.70;;;;;;;18.77;73.24;99855.21;1717766;83;21062;-79
2021/06/21 02:14:01;;;;;;;3.62;1.60;;;;;;;18.80;73.19;99853.66;1718011;83;21049;-79
2021/06/21 02:16:28;;;;;;;6.70;1.70;;;;;;;18.80;73.10;99851.84;1717858;83;21045;-79
2021/06/21 02:18:54;;;;;;;5.58;1.92;;;;;;;18.82;73.02;99850.41;1717991;83;21875;-80
2021/06/21 02:21:22;;;;;;;6.20;1.60;;;;;;;18.86;72.89;99854.52;1717568;83;21065;-78
2021/06/21 02:23:51;;;;;;;3.35;1.40;;;;;;;18.88;72.75;99853.92;1717985;83;21080;-78
2021/06/21 02:26:25;;;;;;;4.92;1.60;;;;;;;18.92;72.67;99851.39;1717783;83;21058;-79
2021/06/21 02:28:57;;;;;;;6.83;1.70;;;;;;;18.95;72.57;99854.30;1714702;81;21006;-80
2021/06/21 02:31:24;;;;;;;8.53;1.60;;;;;;;18.96;72.34;99854.20;1687360;83;21154;-76
2021/06/21 02:33:51;;;;;;;5.28;1.85;;;;;;;18.99;72.32;99861.95;1676418;83;21061;-80
2021/06/21 02:36:18;;;;;;;4.03;1.75;;;;;;;19.02;72.20;99860.88;1704259;84;21133;-82
2021/06/21 02:38:45;;;;;;;4.10;1.50;;;;;;;19.04;72.10;99858.45;1703921;84;21576;-78
2021/06/21 02:41:14;;;;;;;8.18;1.80;;;;;;;19.06;72.07;99859.67;1704115;84;21094;-81
2021/06/21 02:43:41;;;;;;;5.85;1.67;;;;;;;19.06;72.04;99855.18;1704068;84;21958;-80
2021/06/21 02:46:08;;;;;;;3.25;1.60;;;;;;;19.06;72.02;99857.85;1704285;83;21042;-79
2021/06/21 02:48:36;;;;;;;5.40;1.65;;;;;;;19.09;71.91;99856.76;1704112;84;21086;-81
2021/06/21 02:51:03;;;;;;;8.28;1.40;;;;;;;19.11;71.85;99857.98;1704385;84;21055;-79
2021/06/21 02:53:55;;;;;;;6.45;1.60;;;;;;;19.13;71.75;99858.72;1704256;84;21074;-81
2021/06/21 02:56:43;;;;;;;7.40;1.60;;;;;;;19.15;71.64;99852.30;1704967;84;21141;-78
2021/06/21 02:59:13;;;;;;;8.83;2.00;;;;;;;19.21;71.44;99850.95;1707621;84;21069;-78
2021/06/21 03:01:52;;;;;;;6.42;1.50;;;;;;;19.25;71.26;99850.59;1712366;82;21003;-76
2021/06/21 03:04:19;;;;;;;5.67;1.65;;;;;;;19.31;70.92;99850.63;1681083;84;21033;-77
2021/06/21 03:06:46;;;;;;;9.63;1.77;;;;;;;19.38;70.74;99843.83;1712635;83;21046;-77
2021/06/21 03:09:15;;;;;;;7.90;1.72;;;;;;;19.44;70.17;99842.03;1678119;85;21150;-78
2021/06/21 03:11:42;;;;;;;3.98;1.90;;;;;;;19.53;70.06;99831.58;1704821;83;21085;-78
2021/06/21 03:14:09;;;;;;;5.45;1.60;;;;;;;19.60;69.64;99830.11;1716689;82;21019;-76
2021/06/21 03:16:39;;;;;;;8.65;2.00;;;;;;;19.69;69.55;99834.75;1716578;82;21061;-76
2021/06/21 03:19:06;;;;;;;5.87;1.72;;;;;;;19.77;68.96;99832.33;1660992;85;21112;-78
2021/06/21 03:21:32;;;;;;;10.88;1.70;;;;;;;19.85;68.67;99837.92;1717017;83;21101;-77
2021/06/21 03:23:59;;;;;;;5.12;2.30;;;;;;;19.96;68.39;99830.85;1682612;85;21019;-76
2021/06/21 03:26:30;;;;;;;8.35;1.60;;;;;;;20.04;67.87;99834.61;1717449;83;20956;-77
2021/06/21 03:28:57;;;;;;;7.42;1.80;;;;;;;20.12;67.88;99833.97;1722884;81;20997;-77
2021/06/21 03:31:24;;;;;;;7.45;1.60;;;;;;;20.24;67.29;99839.64;1695324;84;21080;-77
2021/06/21 03:33:51;;;;;;;4.65;1.95;;;;;;;20.35;67.09;99837.92;1692542;84;21085;-80
2021/06/21 03:36:18;;;;;;;6.00;1.60;;;;;;;20.41;66.79;99830.75;1694788;84;20997;-80
2021/06/21 03:38:46;;;;;;;7.15;2.08;;;;;;;20.58;65.80;99840.91;1693513;84;21005;-76
2021/06/21 03:41:13;;;;;;;5.37;1.92;;;;;;;20.68;65.50;99843.19;1692326;84;21501;-78
2021/06/21 03:43:40;;;;;;;4.10;2.15;;;;;;;20.78;65.41;99843.76;1690904;84;21048;-77
2021/06/21 03:46:09;;;;;;;7.00;1.87;;;;;;;20.93;64.37;99847.80;1690253;84;21086;-76
2021/06/21 03:48:37;;;;;;;4.85;1.75;;;;;;;21.02;64.29;99851.02;1688976;84;21969;-79
2021/06/21 03:51:05;;;;;;;4.15;2.05;;;;;;;21.10;63.87;99849.05;1689168;84;21093;-78
2021/06/21 03:53:31;;;;;;;3.90;1.60;;;;;;;21.17;63.11;99859.59;1689303;84;21053;-78
2021/06/21 03:56:00;;;;;;;4.92;1.75;;;;;;;21.27;62.93;99859.64;1689419;84;21109;-77
2021/06/21 03:58:26;;;;;;;4.85;1.57;;;;;;;21.33;62.40;99861.31;1689399;84;21094;-80
2021/06/21 04:00:54;;;;;;;6.42;1.80;;;;;;;21.38;62.33;99852.38;1689328;84;21070;-82
2021/06/21 04:03:20;;;;;;;6.62;2.00;;;;;;;21.49;61.82;99843.45;1689339;84;21140;-79
2021/06/21 04:05:48;;;;;;;3.85;1.60;;;;;;;21.58;61.72;99848.00;1689839;84;21041;-79
2021/06/21 04:08:15;;;;;;;4.62;1.80;;;;;;;21.70;61.37;99838.53;1689847;84;21579;-82
2021/06/21 04:10:41;;;;;;;3.60;1.82;;;;;;;21.82;60.73;99845.48;1689579;84;21105;-79
2021/06/21 04:13:08;;;;;;;7.22;2.22;;;;;;;21.89;60.23;99842.61;1689731;84;21033;-79
2021/06/21 04:15:36;;;;;;;5.20;1.90;;;;;;;22.04;60.33;99846.23;1689705;84;21575;-77
2021/06/21 04:18:06;;;;;;;3.45;1.62;;;;;;;22.20;60.02;99839.84;1689587;84;21097;-79
2021/06/21 04:20:33;;;;;;;4.00;1.72;;;;;;;22.36;59.35;99839.34;1689672;84;21674;-78
2021/06/21 04:23:00;;;;;;;9.65;1.98;;;;;;;22.51;58.74;99840.63;1689663;84;21159;-76
2021/06/21 04:25:27;;;;;;;7.12;1.82;;;;;;;22.65;58.22;99841.20;1689250;84;21113;-79
2021/06/21 04:27:55;;;;;;;4.58;1.80;;;;;;;22.84;58.17;99839.84;1688922;84;21065;-78
2021/06/21 04:30:24;;;;;;;4.87;1.52;;;;;;;23.04;57.07;99833.99;1678103;84;21073;-78
2021/06/21 04:32:52;;;;;;;10.35;2.15;;;;;;;23.24;56.05;99844.20;1676352;85;21058;-77
2021/06/21 04:35:21;;;;;;;8.93;1.85;;;;;;;23.31;55.33;99839.11;1676621;85;21086;-76
2021/06/21 04:37:48;;;;;;;6.30;2.00;;;;;;;23.45;55.38;99834.09;1676417;85;21101;-76
2021/06/21 04:40:19;;;;;;;7.47;1.98;;;;;;;23.64;54.77;99835.85;1676860;85;21122;-77
2021/06/21 04:42:46;;;;;;;;;;;;;;;23.75;54.01;99834.02;1713819;83;21055;-78
2021/06/21 04:45:13;;;;;;;8.15;1.80;;;;;;;23.84;54.08;99838.50;1710973;83;20248;-77
2021/06/21 04:47:41;;;;;;;6.97;2.00;;;;;;;23.96;54.33;99829.22;1711159;83;21131;-76
2021/06/21 04:50:10;;;;;;;5.58;1.72;;;;;;;24.14;53.28;99831.11;1712420;83;21031;-74
2021/06/21 04:52:40;;;;;;;8.45;1.80;;;;;;;24.31;53.43;99832.96;1711755;83;21690;-78
2021/06/21 04:55:09;;;;;;;10.68;1.85;;;;;;;24.48;52.38;99829.48;1711324;83;21180;-76
2021/06/21 04:57:36;;;;;;;6.40;2.42;;;;;;;24.60;52.01;99830.59;1710806;83;21067;-75
2021/06/21 05:00:06;;;;;;;8.63;1.80;;;;;;;24.70;51.21;99831.34;1711228;83;21122;-79
2021/06/21 05:02:33;;;;;;;5.12;1.77;;;;;;;24.70;51.26;99832.18;1710635;82;21062;-75
2021/06/21 05:05:00;;;;;;;4.78;1.32;;;;;;;24.71;50.76;99827.67;1704469;84;21552;-77
2021/06/21 05:07:28;;;;;;;10.55;1.72;;;;;;;24.67;51.30;99826.28;1704676;83;21081;-77
2021/06/21 05:09:54;;;;;;;12.40;2.02;;;;;;;24.77;51.22;99828.37;1705840;83;21065;-76
2021/06/21 05:12:22;;;;;;;5.12;1.77;;;;;;;25.00;50.19;99822.48;1704164;84;21089;-79
2021/06/21 05:14:49;;;;;;;5.28;1.85;;;;;;;25.13;49.73;99826.45;1706117;83;21097;-76
2021/06/21 05:17:16;;;;;;;10.20;1.87;;;;;;;25.23;50.00;99831.77;1693240;82;21105;-77
2021/06/21 05:19:44;;;;;;;5.33;2.15;;;;;;;25.40;49.47;99833.21;1711494;83;21112;-77
2021/06/21 05:22:11;;;;;;;8.90;1.82;;;;;;;25.56;48.57;99823.89;1665935;83;21583;-75
2021/06/21 05:24:38;;;;;;;8.73;1.55;;;;;;;25.63;48.46;99828.11;1681652;83;21029;-75
2021/06/21 05:27:07;;;;;;;9.10;1.72;;;;;;;25.80;47.99;99835.79;1705703;82;21561;-70
2021/06/21 05:29:34;;;;;;;7.87;2.02;;;;;;;25.94;47.86;99843.28;1702346;82;21072;-71
2021/06/21 05:32:02;;;;;;;5.35;1.32;;;;;;;26.04;47.68;99835.89;1710706;83;21979;-70
2021/06/21 05:34:29;;;;;;;4.05;1.15;;;;;;;26.10;47.79;99835.75;1723124;83;21034;-71
2021/06/21 05:36:56;;;;;;;4.72;1.52;;;;;;;26.23;47.40;99825.84;1711492;83;21142;-71
2021/06/21 05:39:23;;;;;;;9.25;1.60;;;;;;;26.29;47.09;99823.30;1710591;83;21077;-72
2021/06/21 05:41:50;;;;;;;11.83;1.60;;;;;;;26.37;47.19;99819.80;1711965;83;22043;-72
2021/06/21 05:44:17;;;;;;;6.95;1.62;;;;;;;26.56;47.06;99815.95;1682181;84;21127;-71
2021/06/21 05:46:45;;;;;;;5.75;1.50;;;;;;;26.80;46.20;99819.16;1669693;85;21359;-72
2021/06/21 05:49:12;;;;;;;4.15;1.85;;;;;;;26.83;46.28;99828.30;1671396;85;21918;-72
2021/06/21 05:51:41;;;;;;;9.43;1.85;;;;;;;26.90;45.54;99815.79;1659347;85;21104;-73
2021/06/21 05:54:08;;;;;;;4.67;1.37;;;;;;;27.00;45.60;99815.09;1677681;85;21133;-72
2021/06/21 05:56:36;;;;;;;8.10;2.27;;;;;;;27.19;45.01;99822.49;1679801;85;21106;-71
2021/06/21 05:59:03;;;;;;;6.20;1.95;;;;;;;27.31;44.89;99821.66;1684924;84;21210;-71
2021/06/21 06:01:31;;;;;;;7.40;1.52;;;;;;;27.28;44.72;99828.25;1657794;85;21121;-73
2021/06/21 06:03:58;;;;;;;9.03;1.60;;;;;;;27.18;45.01;99823.52;1669227;85;21141;-72
2021/06/21 06:06:26;;;;;;;9.60;2.37;;;;;;;27.10;45.04;99826.23;1659477;85;21070;-72
2021/06/21 06:08:53;;;;;;;12.20;1.80;;;;;;;26.96;45.06;99827.28;1664994;85;22149;-72
2021/06/21 06:11:21;;;;;;;10.50;1.50;;;;;;;26.85;45.47;99828.97;1659700;85;21058;-71
2021/06/21 06:13:48;;;;;;;5.03;1.75;;;;;;;26.85;45.63;99830.33;1654977;85;21139;-71
2021/06/21 06:16:15;;;;;;;9.08;1.90;;;;;;;26.93;45.74;99823.55;1665059;85;21069;-71
2021/06/21 06:18:44;;;;;;;6.70;2.10;;;;;;;27.13;45.71;99824.04;1668465;85;21062;-72
2021/06/21 06:21:16;;;;;;;12.43;1.60;;;;;;;27.28;45.36;99822.84;1660306;85;21509;-72
2021/06/21 06:23:43;;;;;;;8.93;1.80;;;;;;;27.34;45.48;99820.81;1670204;85;21058;-72
2021/06/21 06:26:10;;;;;;;7.22;1.90;;;;;;;27.45;45.55;99818.75;1668726;85;21354;-72
2021/06/21 06:28:39;;;;;;;5.95;1.57;;;;;;;27.58;44.81;99813.64;1678425;85;21137;-71
2021/06/21 06:31:07;;;;;;;4.87;1.67;;;;;;;27.74;44.81;99806.80;1657260;86;21047;-73
2021/06/21 06:33:34;;;;;;;7.35;1.47;;;;;;;27.78;43.90;99802.73;1707754;82;21081;-73
2021/06/21 06:36:01;;;;;;;6.80;1.87;;;;;;;27.85;43.87;99800.72;1711898;82;21145;-73
2021/06/21 06:38:28;;;;;;;8.93;1.45;;;;;;;27.96;43.60;99798.97;1712221;83;21553;-73
2021/06/21 06:40:56;;;;;;;9.48;1.50;;;;;;;28.03;43.16;99791.83;1711096;82;21042;-71
2021/06/21 06:43:24;;;;;;;8.05;1.70;;;;;;;28.01;42.34;99795.22;1688860;83;21568;-72
2021/06/21 06:45:51;;;;;;;5.40;1.87;;;;;;;27.98;43.12;99791.52;1710928;83;21077;-73
2021/06/21 06:48:18;;;;;;;6.85;1.35;;;;;;;28.00;42.64;99780.02;1712160;83;21140;-73
2021/06/21 06:50:46;;;;;;;10.05;1.85;;;;;;;28.05;41.97;99780.83;1712471;83;21992;-73
2021/06/21 06:53:16;;;;;;;7.10;1.90;;;;;;;28.06;42.19;99783.86;1669686;84;21045;-72
2021/06/21 06:58:30;;;;;;;9.63;2.08;;;;;;;28.33;42.55;99782.50;1709186;83;21081;-72
2021/06/21 07:00:57;;;;;;;5.78;1.75;;;;;;;28.43;42.03;99770.38;1705765;83;22243;-73
2021/06/21 07:03:24;;;;;;;7.50;1.82;;;;;;;28.42;41.57;99770.06;1707540;83;21156;-72
2021/06/21 07:05:51;;;;;;;13.28;1.80;;;;;;;28.44;42.12;99771.25;1711099;83;21124;-75
2021/06/21 07:08:18;;;;;;;5.03;1.80;;;;;;;28.58;42.12;99769.64;1680255;84;21057;-73
2021/06/21 07:10:45;;;;;;;8.43;1.65;;;;;;;28.63;41.32;99767.22;1673346;84;21431;-72
2021/06/21 07:13:12;;;;;;;10.95;2.00;;;;;;;28.69;41.18;99762.92;1711904;83;21128;-73
2021/06/21 07:15:39;;;;;;;9.68;2.55;;;;;;;28.77;41.36;99757.44;1711727;83;21068;-73
2021/06/21 07:18:06;;;;;;;8.98;1.70;;;;;;;28.86;41.52;99750.92;1701253;83;21552;-72
2021/06/21 07:20:34;;;;;;;8.15;1.70;;;;;;;29.09;40.90;99750.05;1662868;84;21073;-73
2021/06/21 07:23:00;;;;;;;10.63;1.55;;;;;;;29.17;40.71;99756.71;1670169;84;21894;-72
2021/06/21 07:25:27;;;;;;;12.58;1.87;;;;;;;29.11;40.58;99761.55;1667992;84;21117;-73
2021/06/21 07:27:55;;;;;;;7.28;1.57;;;;;;;29.15;40.59;99769.12;1676994;84;21538;-73
2021/06/21 07:30:23;;;;;;;11.33;2.05;;;;;;;29.15;40.35;99767.77;1673780;83;21807;-73
2021/06/21 07:32:50;;;;;;;12.05;2.15;;;;;;;29.24;40.41;99769.36;1711121;83;21073;-74
2021/06/21 07:35:21;;;;;;;13.65;2.02;;;;;;;29.19;40.26;99766.86;1700464;83;21494;-73
2021/06/21 07:37:46;;;;;;;14.15;1.72;;;;;;;29.24;40.80;99759.00;1710830;82;21619;-73
2021/06/21 07:40:13;;;;;;;9.98;1.77;;;;;;;29.46;40.92;99766.20;1711949;83;21112;-71
2021/06/21 07:42:41;;;;;;;9.98;1.60;;;;;;;29.74;40.01;99770.97;1714657;82;21006;-72
2021/06/21 07:45:11;;;;;;;11.63;2.27;;;;;;;29.81;39.17;99769.69;1675677;83;21052;-72
2021/06/21 07:47:38;;;;;;;8.30;2.20;;;;;;;29.67;39.24;99765.95;1670321;83;21737;-72
2021/06/21 07:50:06;;;;;;;9.75;1.92;;;;;;;29.63;39.99;99763.28;1699262;83;21574;-73
2021/06/21 07:52:33;;;;;;;7.00;2.08;;;;;;;29.57;40.46;99764.05;1674722;85;21186;-72
2021/06/21 07:55:01;;;;;;;9.45;2.50;;;;;;;29.74;40.19;99770.97;1673987;85;21150;-71
2021/06/21 07:57:28;;;;;;;6.92;1.95;;;;;;;29.97;39.18;99772.70;1694579;83;21566;-73
2021/06/21 07:59:56;;;;;;;18.12;2.45;;;;;;;30.08;39.44;99773.56;1710566;83;21051;-73
2021/06/21 08:02:22;;;;;;;14.05;2.40;;;;;;;30.25;39.00;99776.36;1711231;82;21506;-72
2021/06/21 08:04:55;;;;;;;15.20;2.50;;;;;;;30.27;39.00;99779.73;1711935;83;21164;-72
2021/06/21 08:07:21;;;;;;;10.78;2.20;;;;;;;30.44;39.12;99770.00;1710284;83;21057;-73
2021/06/21 08:09:49;;;;;;;12.78;2.65;;;;;;;30.74;38.36;99774.75;1702978;83;21544;-73
2021/06/21 08:12:18;;;;;;;15.05;4.22;;;;;;;30.86;37.83;99766.92;1712940;83;21050;-74
2021/06/21 08:14:46;;;;;;;14.63;2.37;;;;;;;30.71;37.65;99770.55;1713008;83;21049;-74
2021/06/21 08:17:14;;;;;;;14.63;2.67;;;;;;;30.62;38.30;99766.30;1712270;83;21156;-72
2021/06/21 08:19:41;;;;;;;14.63;2.67;;;;;;;30.72;38.01;99771.38;1708519;83;21002;-73
2021/06/21 08:22:08;;;;;;;13.68;3.05;;;;;;;30.89;38.19;99769.23;1712075;83;21067;-74
2021/06/21 08:24:37;;;;;;;12.55;2.45;;;;;;;31.02;37.50;99770.70;1692730;83;21003;-73
2021/06/21 08:27:05;;;;;;;11.40;2.15;;;;;;;31.02;37.50;99770.70;1710800;83;21121;-72
2021/06/21 08:29:33;;;;;;;13.10;2.52;;;;;;;30.85;38.13;99762.50;1670082;85;21238;-73
2021/06/21 08:32:00;;;;;;;7.20;2.55;;;;;;;30.85;38.13;99762.50;1716672;83;21099;-73
2021/06/21 08:34:27;;;;;;;16.95;2.40;;;;;;;31.13;37.06;99760.62;1720180;82;21066;-73
2021/06/21 08:36:54;;;;;;;17.23;2.77;;;;;;;31.23;36.76;99756.70;1722359;83;21171;-73
2021/06/21 08:39:21;;;;;;;10.68;2.08;;;;;;;31.15;36.72;99754.47;1725083;83;21065;-73
2021/06/21 08:41:48;;;;;;;14.03;2.80;;;;;;;31.06;36.57;99748.87;1716707;82;21961;-73
2021/06/21 08:44:15;;;;;;;9.63;2.55;;;;;;;30.99;36.66;99752.07;1722843;81;21078;-73
2021/06/21 08:46:42;;;;;;;11.25;2.58;;;;;;;31.08;37.08;99735.92;1688218;84;21098;-72
2021/06/21 08:49:10;;;;;;;10.00;2.40;;;;;;;31.30;36.84;99739.90;1669916;85;21057;-75
2021/06/21 08:51:37;;;;;;;7.60;1.90;;;;;;;31.42;36.24;99753.27;1685728;84;21159;-73
2021/06/21 08:54:04;;;;;;;13.85;2.37;;;;;;;31.39;36.83;99748.21;1688732;84;21142;-72
2021/06/21 08:56:32;;;;;;;13.98;2.22;;;;;;;31.41;36.60;99747.53;1686621;84;21103;-73
2021/06/21 08:58:59;;;;;;;12.30;2.27;;;;;;;31.47;37.12;99749.95;1702482;84;21029;-74
2021/06/21 09:01:27;;;;;;;15.93;2.37;;;;;;;31.46;36.70;99740.95;1698221;82;21290;-72
2021/06/21 09:03:54;;;;;;;9.13;2.40;;;;;;;31.55;36.85;99742.45;1688618;84;21082;-73
2021/06/21 09:06:22;;;;;;;14.23;2.77;;;;;;;31.60;35.53;99746.45;1704311;84;21170;-73
2021/06/21 09:08:57;;;;;;;16.15;2.67;;;;;;;31.42;36.13;99744.28;1704118;84;21630;-73
2021/06/21 09:11:51;;;;;;;13.55;2.10;;;;;;;31.41;36.32;99744.80;1690636;84;21088;-74
2021/06/21 09:14:31;;;;;;;13.25;2.05;;;;;;;31.62;36.06;99738.94;1690986;84;21037;-71
2021/06/21 09:17:02;;;;;;;12.18;2.77;;;;;;;31.88;35.78;99744.45;1696110;84;21108;-72
2021/06/21 09:19:30;;;;;;;11.05;2.77;;;;;;;31.95;35.59;99745.30;1695877;84;21763;-72
2021/06/21 09:21:57;;;;;;;8.95;2.20;;;;;;;32.02;35.72;99745.89;1704032;84;21070;-72
2021/06/21 09:24:27;;;;;;;17.07;2.40;;;;;;;32.20;34.66;99742.05;1704209;84;21050;-71
2021/06/21 09:27:00;;;;;;;15.65;2.30;;;;;;;32.32;34.74;99752.63;1698492;84;21876;-73
2021/06/21 09:29:39;;;;;;;15.48;2.52;;;;;;;32.26;34.50;99757.57;1704394;84;21010;-72
2021/06/21 09:32:08;;;;;;;16.93;2.60;;;;;;;32.17;35.11;99748.75;1681561;84;21158;-71
2021/06/21 09:34:35;;;;;;;17.70;2.62;;;;;;;32.13;34.63;99753.45;1687399;84;21007;-71
2021/06/21 09:37:11;;;;;;;10.95;2.27;;;;;;;32.02;35.06;99752.69;1654400;83;21560;-72
2021/06/21 09:39:44;;;;;;;14.58;2.83;;;;;;;32.16;34.88;99748.95;1702907;82;21391;-72
2021/06/21 09:42:24;;;;;;;14.28;2.50;;;;;;;32.32;34.56;99750.44;1701657;82;21097;-72
2021/06/21 09:44:58;;;;;;;19.45;2.45;;;;;;;32.42;34.74;99752.75;1709376;82;21140;-72
2021/06/21 09:47:37;;;;;;;15.53;2.50;;;;;;;32.18;34.22;99761.84;1696370;83;21035;-77
2021/06/21 09:50:14;;;;;;;11.73;2.10;;;;;;;31.91;34.92;99763.13;1708928;82;21595;-75
2021/06/21 09:53:02;;;;;;;16.12;3.55;;;;;;;31.95;34.90;99756.73;1708151;82;21611;-76
2021/06/21 09:55:41;;;;;;;17.80;2.10;;;;;;;32.13;35.02;99758.91;1699709;83;21097;-76
2021/06/21 09:58:21;;;;;;;14.43;3.12;;;;;;;32.16;34.91;99757.98;1704275;82;21215;-75
2021/06/21 10:00:54;;;;;;;10.93;2.83;;;;;;;32.12;35.34;99749.06;1692307;83;21090;-74
2021/06/21 10:03:28;;;;;;;22.62;2.92;;;;;;;32.03;35.48;99757.11;1706198;83;21164;-74
2021/06/21 10:06:07;;;;;;;19.62;2.72;;;;;;;32.01;35.86;99763.28;1709415;82;21038;-74
2021/06/21 10:08:52;;;;;;;19.52;2.70;;;;;;;32.10;35.64;99759.33;1702759;83;21585;-75
2021/06/21 10:11:37;;;;;;;18.17;3.35;;;;;;;31.98;36.03;99761.28;1709305;83;21229;-76
2021/06/21 10:14:09;;;;;;;18.80;2.67;;;;;;;31.86;36.11;99761.51;1679281;83;21125;-75
2021/06/21 10:16:36;;;;;;;17.65;2.90;;;;;;;31.76;36.48;99774.68;1709768;83;21074;-76
2021/06/21 10:19:05;;;;;;;17.57;2.83;;;;;;;31.62;36.89;99770.23;1704010;83;21561;-75
2021/06/21 10:21:33;;;;;;;19.87;3.33;;;;;;;31.48;36.68;99780.22;1677847;85;21069;-75
2021/06/21 10:24:01;;;;;;;28.07;3.87;;;;;;;31.27;36.88;99775.67;1701936;83;22361;-74
2021/06/21 10:26:28;;;;;;;14.38;2.80;;;;;;;31.26;37.88;99787.58;1697996;83;21049;-78
2021/06/21 10:28:54;;;;;;;21.82;3.47;;;;;;;31.04;37.58;99782.22;1710162;83;21120;-75
2021/06/21 10:31:29;;;;;;;22.17;3.27;;;;;;;30.92;37.89;99782.42;1702448;82;21105;-76
2021/06/21 10:34:03;;;;;;;26.90;3.55;;;;;;;31.18;38.16;99780.95;1711322;83;21105;-76
2021/06/21 10:36:49;;;;;;;21.93;3.25;;;;;;;31.18;38.16;99780.95;1706411;83;21172;-72
2021/06/21 10:39:22;;;;;;;24.92;3.83;;;;;;;31.42;38.14;99777.76;1686286;84;21061;-80
2021/06/21 10:42:11;;;;;;;24.40;3.72;;;;;;;31.35;37.66;99791.81;1644509;85;21599;-80
2021/06/21 10:46:25;;;;;;;22.82;3.80;;;;;;;31.49;37.45;99766.39;1779588;79;22692;-80
2021/06/21 10:49:06;;;;;;;29.80;4.72;;;;;;;31.84;37.14;99766.84;1689777;84;20961;-79
2021/06/21 10:51:41;;;;;;;19.87;3.12;;;;;;;32.24;36.42;99767.83;1706546;81;22212;-77
2021/06/21 10:54:23;;;;;;;19.30;3.30;;;;;;;32.15;36.60;99766.35;1698859;84;21042;-78
2021/06/21 10:56:55;;;;;;;26.57;4.20;;;;;;;32.04;36.47;99772.39;1684471;84;21095;-77
2021/06/21 10:59:27;;;;;;;24.20;3.45;;;;;;;32.18;36.84;99770.02;1704489;83;21689;-77
2021/06/21 11:01:57;;;;;;;23.10;3.62;;;;;;;32.26;36.21;99769.83;1704369;83;21561;-77
2021/06/21 11:04:39;;;;;;;20.82;3.10;;;;;;;32.21;36.40;99777.80;1720493;82;21189;-78
2021/06/21 11:07:19;;;;;;;19.62;3.30;;;;;;;32.04;36.13;99775.95;1706104;83;21013;-78
2021/06/21 11:10:01;;;;;;;30.85;4.17;;;;;;;32.26;36.85;99771.19;1703090;83;21005;-79
2021/06/21 11:12:36;;;;;;;24.15;3.40;;;;;;;32.59;36.17;99778.06;1716190;83;21470;-81
2021/06/21 11:15:11;;;;;;;20.72;3.70;;;;;;;32.77;36.09;99774.71;1699435;84;21529;-81
2021/06/21 11:17:57;;;;;;;19.60;2.90;;;;;;;32.65;36.11;99787.80;1699582;84;22011;-82
2021/06/21 11:20:41;;;;;;;24.57;3.92;;;;;;;32.29;35.78;99777.58;1699648;84;21668;-81
2021/06/21 11:23:11;;;;;;;24.57;3.40;;;;;;;31.91;37.02;99790.84;1703476;83;21117;-81
2021/06/21 11:25:49;;;;;;;16.30;3.53;;;;;;;31.73;37.14;99779.19;1720789;83;21525;-80
2021/06/21 11:28:40;;;;;;;18.20;2.85;;;;;;;31.67;37.56;99785.42;1714585;83;21050;-80
2021/06/21 11:31:28;;;;;;;;;;;;;;;31.67;37.49;99785.42;1701011;83;21129;-81
2021/06/21 11:33:59;;;;;;;23.38;3.27;;;;;;;31.63;37.84;99784.98;1733549;82;20198;-82
2021/06/21 11:36:48;;;;;;;30.00;3.85;;;;;;;31.75;37.83;99773.02;1713318;82;21587;-81
2021/06/21 11:39:33;;;;;;;36.65;3.77;;;;;;;31.90;37.65;99777.77;1707461;83;21026;-81
2021/06/21 11:42:08;;;;;;;25.57;3.50;;;;;;;31.88;37.25;99778.48;1707920;84;21014;-82
2021/06/21 11:44:42;;;;;;;25.52;3.90;;;;;;;31.76;37.17;99774.16;1703351;83;21081;-80
2021/06/21 11:47:18;;;;;;;25.52;3.87;;;;;;;31.67;37.56;99785.42;1711807;83;21502;-80
2021/06/21 11:49:47;;;;;;;27.82;3.40;;;;;;;31.64;38.14;99774.95;1719794;83;21125;-80
2021/06/21 11:52:21;;;;;;;24.65;3.85;;;;;;;31.64;38.16;99777.68;1757627;80;21706;-81